createdAt,value
2018-10-05T00:01:56.586Z,26.45
2018-10-05T00:04:24.766Z,26.68
2018-10-05T00:06:53.035Z,25.43
2018-10-05T00:09:21.283Z,22.73
2018-10-05T00:11:49.515Z,25.15
2018-10-05T00:14:17.751Z,20.30
2018-10-05T00:16:45.965Z,24.32
2018-10-05T00:19:14.235Z,23.05
2018-10-05T00:21:42.497Z,24.63
2018-10-05T00:24:10.765Z,26.27
2018-10-05T00:26:38.934Z,25.05
2018-10-05T00:29:07.220Z,28.70
2018-10-05T00:31:35.392Z,22.30
2018-10-05T00:34:03.665Z,21.30
2018-10-05T00:36:31.909Z,20.75
2018-10-05T00:39:00.103Z,22.48
2018-10-05T00:41:28.273Z,23.05
2018-10-05T00:43:56.513Z,21.52
2018-10-05T00:46:24.752Z,21.82
2018-10-05T00:48:52.970Z,22.98
2018-10-05T00:51:21.217Z,25.90
2018-10-05T00:53:49.416Z,24.43
2018-10-05T00:56:17.649Z,26.60
2018-10-05T00:58:45.899Z,24.15
2018-10-05T01:01:14.224Z,25.35
2018-10-05T01:03:42.486Z,25.57
2018-10-05T01:06:10.711Z,25.27
2018-10-05T01:08:38.929Z,27.90
2018-10-05T01:11:07.265Z,30.37
2018-10-05T01:13:35.554Z,27.62
2018-10-05T01:16:03.760Z,24.70
2018-10-05T01:18:32.073Z,26.52
2018-10-05T01:21:00.277Z,31.10
2018-10-05T01:23:28.541Z,27.05
2018-10-05T01:25:56.811Z,29.37
2018-10-05T01:28:25.080Z,28.02
2018-10-05T01:30:53.349Z,30.75
2018-10-05T01:33:21.719Z,29.63
2018-10-05T01:35:49.941Z,30.25
2018-10-05T01:38:18.188Z,31.87
2018-10-05T01:40:46.390Z,30.65
2018-10-05T01:43:14.564Z,28.73
2018-10-05T01:45:42.811Z,26.05
2018-10-05T01:48:11.063Z,31.10
2018-10-05T01:50:39.325Z,28.75
2018-10-05T01:53:07.605Z,29.05
2018-10-05T01:55:35.933Z,30.85
2018-10-05T01:58:04.319Z,31.70
2018-10-05T02:00:32.533Z,30.62
2018-10-05T02:03:00.828Z,28.57
2018-10-05T02:05:29.042Z,33.65
2018-10-05T02:07:57.268Z,32.40
2018-10-05T02:10:25.479Z,36.20
2018-10-05T02:12:53.713Z,35.60
2018-10-05T02:15:21.977Z,31.40
2018-10-05T02:17:50.207Z,30.77
2018-10-05T02:20:18.514Z,31.75
2018-10-05T02:22:46.740Z,31.37
2018-10-05T02:25:15.128Z,30.15
2018-10-05T02:27:43.393Z,30.90
2018-10-05T02:30:11.608Z,34.15
2018-10-05T02:32:39.805Z,31.40
2018-10-05T02:35:08.035Z,33.00
2018-10-05T02:37:36.345Z,29.70
2018-10-05T02:40:04.569Z,36.05
2018-10-05T02:42:32.853Z,32.17
2018-10-05T02:45:01.083Z,31.07
2018-10-05T02:47:29.546Z,32.48
2018-10-05T02:49:57.757Z,33.02
2018-10-05T02:52:25.954Z,34.50
2018-10-05T02:54:54.190Z,36.93
2018-10-05T02:57:22.413Z,38.23
2018-10-05T02:59:50.817Z,39.25
2018-10-05T03:02:27.789Z,38.08
2018-10-05T03:04:56.090Z,34.45
2018-10-05T03:07:25.222Z,41.53
2018-10-05T03:09:53.444Z,37.98
2018-10-05T03:12:21.655Z,37.70
2018-10-05T03:14:49.872Z,38.80
2018-10-05T03:17:18.125Z,38.08
2018-10-05T03:19:46.491Z,34.05
2018-10-05T03:22:14.747Z,38.65
2018-10-05T03:24:43.097Z,35.58
2018-10-05T03:27:11.318Z,37.03
2018-10-05T03:29:39.538Z,37.28
2018-10-05T03:32:07.884Z,39.88
2018-10-05T03:34:36.109Z,37.55
2018-10-05T03:37:04.336Z,39.85
2018-10-05T03:39:32.621Z,38.10
2018-10-05T03:42:01.450Z,36.65
2018-10-05T03:44:29.961Z,41.88
2018-10-05T03:46:58.277Z,37.85
2018-10-05T03:49:26.553Z,41.48
2018-10-05T03:51:54.874Z,39.13
2018-10-05T03:54:23.294Z,35.63
2018-10-05T03:56:51.678Z,36.53
2018-10-05T03:59:19.946Z,38.40
2018-10-05T04:01:48.199Z,38.83
2018-10-05T04:04:16.535Z,39.60
2018-10-05T04:06:44.782Z,32.40
2018-10-05T04:09:13.039Z,40.80
2018-10-05T04:11:41.358Z,43.10
2018-10-05T04:14:09.611Z,39.20
2018-10-05T04:16:37.876Z,40.43
2018-10-05T04:19:06.125Z,39.63
2018-10-05T04:21:34.588Z,39.80
2018-10-05T04:24:02.898Z,42.20
2018-10-05T04:26:31.192Z,36.73
2018-10-05T04:28:59.504Z,45.20
2018-10-05T04:31:27.749Z,43.70
2018-10-05T04:33:56.051Z,42.65
2018-10-05T04:36:24.334Z,40.35
2018-10-05T04:38:52.640Z,39.48
2018-10-05T04:41:20.990Z,45.15
2018-10-05T04:43:49.145Z,45.85
2018-10-05T04:46:17.483Z,43.58
2018-10-05T04:48:45.709Z,46.30
2018-10-05T04:51:13.947Z,44.18
2018-10-05T04:53:42.302Z,41.58
2018-10-05T04:56:10.502Z,43.20
2018-10-05T04:58:38.884Z,47.80
2018-10-05T05:01:07.157Z,42.80
2018-10-05T05:03:35.461Z,46.50
2018-10-05T05:06:04.567Z,39.55
2018-10-05T05:08:32.820Z,44.83
2018-10-05T05:11:01.106Z,37.55
2018-10-05T05:13:29.353Z,36.40
2018-10-05T05:15:57.626Z,36.68
2018-10-05T05:18:25.809Z,43.00
2018-10-05T05:20:54.187Z,43.00
2018-10-05T05:23:23.080Z,42.27
2018-10-05T05:25:51.447Z,41.37
2018-10-05T05:28:19.766Z,40.85
2018-10-05T05:30:48.229Z,39.05
2018-10-05T05:33:17.107Z,39.18
2018-10-05T05:35:45.852Z,41.63
2018-10-05T05:38:14.109Z,40.23
2018-10-05T05:40:42.434Z,35.50
2018-10-05T05:43:11.396Z,41.65
2018-10-05T05:45:39.869Z,38.63
2018-10-05T05:48:08.283Z,39.30
2018-10-05T05:50:36.753Z,34.75
2018-10-05T05:53:05.118Z,38.85
2018-10-05T05:55:35.426Z,38.83
2018-10-05T05:58:04.210Z,39.98
2018-10-05T06:00:32.559Z,39.70
2018-10-05T06:03:02.047Z,44.85
2018-10-05T06:05:31.582Z,42.27
2018-10-05T06:07:59.924Z,37.95
2018-10-05T06:10:28.243Z,47.20
2018-10-05T06:12:56.418Z,41.18
2018-10-05T06:15:24.590Z,44.38
2018-10-05T06:17:52.852Z,43.70
2018-10-05T06:20:21.121Z,36.30
2018-10-05T06:22:49.348Z,37.05
2018-10-05T06:25:17.583Z,36.35
2018-10-05T06:27:45.794Z,34.65
2018-10-05T06:30:15.167Z,42.83
2018-10-05T06:32:43.457Z,37.78
2018-10-05T06:35:11.731Z,36.28
2018-10-05T06:37:55.919Z,33.98
2018-10-05T06:40:24.206Z,37.08
2018-10-05T06:42:52.522Z,41.73
2018-10-05T06:45:20.710Z,34.45
2018-10-05T06:47:48.926Z,38.25
2018-10-05T06:50:17.178Z,32.58
2018-10-05T06:52:45.413Z,36.45
2018-10-05T06:55:13.742Z,33.28
2018-10-05T06:57:42.026Z,28.23
2018-10-05T07:00:10.299Z,29.98
2018-10-05T07:02:38.520Z,29.20
2018-10-05T07:05:07.006Z,30.88
2018-10-05T07:07:36.110Z,30.12
2018-10-05T07:10:04.342Z,25.92
2018-10-05T07:12:32.684Z,35.55
2018-10-05T07:15:00.974Z,25.48
2018-10-05T07:17:29.604Z,29.37
2018-10-05T07:19:57.847Z,29.30
2018-10-05T07:22:26.173Z,25.17
2018-10-05T07:24:54.375Z,29.48
2018-10-05T07:27:22.665Z,23.77
2018-10-05T07:29:50.904Z,21.82
2018-10-05T07:32:19.171Z,27.15
2018-10-05T07:34:47.427Z,24.80
2018-10-05T07:37:15.901Z,21.73
2018-10-05T07:39:44.146Z,21.68
2018-10-05T07:42:12.425Z,18.32
2018-10-05T07:44:40.697Z,24.52
2018-10-05T07:47:08.897Z,25.55
2018-10-05T07:49:37.110Z,22.98
2018-10-05T07:52:05.375Z,22.70
2018-10-05T07:54:33.610Z,27.85
2018-10-05T07:57:01.818Z,19.60
2018-10-05T07:59:30.006Z,21.27
2018-10-05T08:01:58.229Z,20.97
2018-10-05T08:04:26.456Z,18.50
2018-10-05T08:06:54.690Z,21.25
2018-10-05T08:09:23.025Z,20.60
2018-10-05T08:11:51.246Z,22.25
2018-10-05T08:14:19.682Z,18.80
2018-10-05T08:16:47.891Z,17.45
2018-10-05T08:19:16.242Z,19.65
2018-10-05T08:21:44.704Z,19.90
2018-10-05T08:24:13.090Z,16.23
2018-10-05T08:26:41.470Z,18.85
2018-10-05T08:29:09.782Z,17.02
2018-10-05T08:31:38.054Z,20.20
2018-10-05T08:34:06.405Z,16.77
2018-10-05T08:36:34.746Z,19.60
2018-10-05T08:39:03.365Z,16.93
2018-10-05T08:41:31.766Z,16.85
2018-10-05T08:44:00.248Z,18.27
2018-10-05T08:46:28.502Z,17.17
2018-10-05T08:48:56.802Z,12.70
2018-10-05T08:51:25.117Z,19.82
2018-10-05T08:53:53.414Z,13.93
2018-10-05T08:56:21.678Z,17.55
2018-10-05T08:58:50.018Z,18.57
2018-10-05T09:01:18.310Z,15.40
2018-10-05T09:03:46.618Z,14.90
2018-10-05T09:06:14.951Z,14.50
2018-10-05T09:08:43.434Z,15.13
2018-10-05T09:11:11.938Z,19.82
2018-10-05T09:13:40.117Z,14.75
2018-10-05T09:16:08.382Z,13.32
2018-10-05T09:18:36.905Z,14.25
2018-10-05T09:21:05.358Z,15.28
2018-10-05T09:23:33.850Z,11.90
2018-10-05T09:26:02.172Z,13.58
2018-10-05T09:28:30.431Z,15.70
2018-10-05T09:30:58.839Z,11.83
2018-10-05T09:33:27.547Z,14.43
2018-10-05T09:35:55.915Z,14.30
2018-10-05T09:38:24.275Z,15.05
2018-10-05T09:43:31.877Z,12.78
2018-10-05T09:46:00.165Z,12.23
2018-10-05T09:48:28.531Z,11.78
2018-10-05T09:50:56.990Z,12.63
2018-10-05T09:53:25.281Z,12.05
2018-10-05T09:55:57.230Z,13.08
2018-10-05T09:58:25.843Z,9.30
2018-10-05T10:00:59.519Z,10.05
2018-10-05T10:03:30.741Z,10.82
2018-10-05T10:05:59.282Z,11.33
2018-10-05T10:08:27.924Z,13.83
2018-10-05T10:10:56.352Z,9.75
2018-10-05T10:13:24.682Z,8.28
2018-10-05T10:15:52.957Z,10.43
2018-10-05T10:18:21.269Z,9.55
2018-10-05T10:20:49.608Z,11.38
2018-10-05T10:23:18.282Z,18.98
2018-10-05T10:25:46.609Z,19.45
2018-10-05T10:28:14.956Z,20.70
2018-10-05T10:30:43.225Z,29.05
2018-10-05T10:33:19.009Z,20.48
2018-10-05T10:35:48.361Z,26.90
2018-10-05T10:38:16.659Z,36.30
2018-10-05T10:40:44.968Z,15.90
2018-10-05T10:43:13.389Z,23.60
2018-10-05T10:45:41.657Z,14.97
2018-10-05T10:48:09.969Z,14.80
2018-10-05T10:50:38.305Z,13.43
2018-10-05T10:53:06.734Z,11.80
2018-10-05T10:55:34.998Z,16.40
2018-10-05T10:58:03.380Z,12.53
2018-10-05T11:00:31.634Z,11.97
2018-10-05T11:02:59.956Z,11.80
2018-10-05T11:05:28.216Z,14.38
2018-10-05T11:07:56.586Z,8.05
2018-10-05T11:10:25.051Z,8.17
2018-10-05T11:12:53.378Z,9.33
2018-10-05T11:15:21.638Z,7.67
2018-10-05T11:17:50.181Z,8.77
2018-10-05T11:20:18.464Z,8.20
2018-10-05T11:22:46.801Z,6.53
2018-10-05T11:25:15.052Z,6.37
2018-10-05T11:27:43.425Z,6.57
2018-10-05T11:30:11.747Z,7.37
2018-10-05T11:32:39.962Z,4.93
2018-10-05T11:35:08.290Z,6.70
2018-10-05T11:37:36.539Z,6.53
2018-10-05T11:40:04.962Z,9.73
2018-10-05T11:42:33.366Z,5.77
2018-10-05T11:45:01.754Z,5.30
2018-10-05T11:47:30.046Z,5.20
2018-10-05T11:49:58.422Z,8.07
2018-10-05T11:52:26.869Z,4.00
2018-10-05T11:54:55.128Z,4.40
2018-10-05T11:57:23.470Z,4.87
2018-10-05T11:59:51.821Z,4.93
2018-10-05T12:02:20.081Z,4.43
2018-10-05T12:04:49.481Z,4.37
2018-10-05T12:07:17.796Z,3.30
2018-10-05T12:09:46.645Z,5.27
2018-10-05T12:12:15.298Z,10.50
2018-10-05T12:14:43.549Z,3.70
2018-10-05T12:17:11.778Z,7.83
2018-10-05T12:19:40.099Z,4.20
2018-10-05T12:22:08.325Z,4.33
2018-10-05T12:24:36.639Z,6.13
2018-10-05T12:27:05.138Z,3.37
2018-10-05T12:29:33.505Z,4.07
2018-10-05T12:32:03.436Z,3.37
2018-10-05T12:34:31.846Z,4.70
2018-10-05T12:37:00.185Z,6.00
2018-10-05T12:39:28.394Z,3.10
2018-10-05T12:41:56.762Z,3.73
2018-10-05T12:44:24.991Z,3.60
2018-10-05T12:46:53.325Z,4.40
2018-10-05T12:49:21.606Z,3.27
2018-10-05T12:51:50.168Z,4.10
2018-10-05T12:54:19.566Z,3.20
2018-10-05T12:56:47.890Z,4.97
2018-10-05T12:59:16.229Z,3.90
2018-10-05T13:01:44.718Z,3.37
2018-10-05T13:04:13.010Z,4.20
2018-10-05T13:06:41.295Z,2.90
2018-10-05T13:09:09.602Z,2.80
2018-10-05T13:11:38.431Z,4.23
2018-10-05T13:14:07.513Z,2.73
2018-10-05T13:16:36.156Z,3.33
2018-10-05T13:19:04.569Z,2.50
2018-10-05T13:21:33.704Z,3.80
2018-10-05T13:24:02.587Z,1.97
2018-10-05T13:26:30.918Z,2.70
2018-10-05T13:28:59.243Z,5.40
2018-10-05T13:31:27.461Z,3.10
2018-10-05T13:33:55.727Z,2.13
2018-10-05T13:36:24.054Z,3.40
2018-10-05T13:38:52.330Z,2.03
2018-10-05T13:41:20.575Z,1.77
2018-10-05T13:43:49.068Z,3.87
2018-10-05T13:46:17.511Z,8.50
2018-10-05T13:48:45.882Z,1.67
2018-10-05T13:51:14.185Z,7.63
2018-10-05T13:53:42.493Z,3.07
2018-10-05T13:56:10.798Z,2.87
2018-10-05T13:58:39.192Z,4.23
2018-10-05T14:01:07.590Z,4.27
2018-10-05T14:03:35.928Z,6.23
2018-10-05T14:06:04.187Z,3.20
2018-10-05T14:08:32.475Z,2.47
2018-10-05T14:11:01.114Z,2.13
2018-10-05T14:13:29.542Z,2.43
2018-10-05T14:15:58.250Z,1.63
2018-10-05T14:18:26.653Z,1.37
2018-10-05T14:20:54.943Z,1.60
2018-10-05T14:23:23.417Z,1.60
2018-10-05T14:25:51.744Z,2.07
2018-10-05T14:28:20.114Z,1.93
2018-10-05T14:30:48.439Z,2.00
2018-10-05T14:33:18.810Z,4.17
2018-10-05T14:35:47.101Z,1.80
2018-10-05T14:38:16.911Z,2.63
2018-10-05T14:40:46.150Z,3.83
2018-10-05T14:43:17.767Z,4.23
2018-10-05T14:45:46.354Z,6.57
2018-10-05T14:48:15.140Z,4.40
2018-10-05T14:50:43.606Z,5.27
2018-10-05T14:53:12.025Z,2.23
2018-10-05T14:55:40.540Z,2.90
2018-10-05T14:58:08.850Z,2.13
2018-10-05T15:00:37.244Z,3.17
2018-10-05T15:03:05.611Z,2.00
2018-10-05T15:05:33.941Z,2.97
2018-10-05T15:08:02.258Z,4.60
2018-10-05T15:10:30.489Z,2.30
2018-10-05T15:12:58.780Z,3.07
2018-10-05T15:15:27.251Z,4.70
2018-10-05T15:17:55.552Z,2.33
2018-10-05T15:20:23.882Z,2.30
2018-10-05T15:22:52.330Z,2.10
2018-10-05T15:25:20.874Z,2.30
2018-10-05T15:27:49.195Z,6.90
2018-10-05T15:30:17.445Z,3.27
2018-10-05T15:32:46.065Z,3.80
2018-10-05T15:35:14.652Z,2.70
2018-10-05T15:37:43.295Z,3.47
2018-10-05T15:40:12.293Z,3.90
2018-10-05T15:42:40.637Z,3.60
2018-10-05T15:45:08.945Z,4.73
2018-10-05T15:47:38.333Z,1.90
2018-10-05T15:50:06.787Z,4.20
2018-10-05T15:52:35.235Z,1.60
2018-10-05T15:55:03.693Z,3.57
2018-10-05T15:57:32.094Z,3.60
2018-10-05T16:00:00.618Z,2.50
2018-10-05T16:02:29.269Z,2.07
2018-10-05T16:04:57.816Z,4.17
2018-10-05T16:07:26.556Z,4.27
2018-10-05T16:09:55.275Z,5.43
2018-10-05T16:12:24.026Z,2.60
2018-10-05T16:14:52.618Z,4.60
2018-10-05T16:17:20.990Z,2.10
2018-10-05T16:22:28.767Z,5.80
2018-10-05T16:24:57.069Z,3.80
2018-10-05T16:27:25.357Z,5.37
2018-10-05T16:29:54.114Z,4.28
2018-10-05T16:32:22.447Z,5.50
2018-10-05T16:34:50.971Z,2.87
2018-10-05T16:37:19.247Z,3.13
2018-10-05T16:39:48.241Z,5.90
2018-10-05T16:42:16.750Z,4.60
2018-10-05T16:44:45.191Z,6.05
2018-10-05T16:47:13.670Z,4.00
2018-10-05T16:49:42.241Z,2.85
2018-10-05T16:52:10.679Z,2.75
2018-10-05T16:54:38.991Z,6.17
2018-10-05T16:57:07.510Z,4.95
2018-10-05T16:59:35.982Z,5.97
2018-10-05T17:02:04.491Z,5.12
2018-10-05T17:04:32.782Z,5.85
2018-10-05T17:07:01.164Z,8.48
2018-10-05T17:09:29.499Z,3.98
2018-10-05T17:11:57.899Z,4.90
2018-10-05T17:14:26.570Z,7.40
2018-10-05T17:16:55.805Z,2.85
2018-10-05T17:19:24.564Z,4.72
2018-10-05T17:22:05.664Z,6.37
2018-10-05T17:24:40.088Z,4.08
2018-10-05T17:27:12.254Z,3.35
2018-10-05T17:29:40.554Z,4.25
2018-10-05T17:32:11.051Z,6.15
2018-10-05T17:34:41.775Z,4.53
2018-10-05T17:37:10.789Z,4.62
2018-10-05T17:39:40.120Z,4.95
2018-10-05T17:42:13.591Z,6.15
2018-10-05T17:44:42.494Z,5.45
2018-10-05T17:47:12.805Z,5.35
2018-10-05T17:49:42.195Z,7.17
2018-10-05T17:52:10.990Z,4.70
2018-10-05T17:54:40.318Z,8.33
2018-10-05T17:57:11.406Z,3.67
2018-10-05T17:59:39.787Z,9.05
2018-10-05T18:02:14.071Z,4.30
2018-10-05T18:04:42.593Z,5.40
2018-10-05T18:07:12.319Z,5.08
2018-10-05T18:09:41.351Z,8.18
2018-10-05T18:12:14.525Z,3.95
2018-10-05T18:14:43.982Z,8.55
2018-10-05T18:17:12.576Z,6.28
2018-10-05T18:19:41.114Z,4.95
2018-10-05T18:22:09.562Z,6.55
2018-10-05T18:24:37.991Z,5.42
2018-10-05T18:27:08.633Z,7.87
2018-10-05T18:29:37.418Z,8.70
2018-10-05T18:32:06.884Z,4.62
2018-10-05T18:37:29.716Z,6.75
2018-10-05T18:40:00.774Z,7.83
2018-10-05T18:42:31.827Z,5.58
2018-10-05T18:45:01.870Z,4.70
2018-10-05T18:47:31.446Z,6.62
2018-10-05T18:50:03.673Z,5.78
2018-10-05T18:52:32.324Z,8.30
2018-10-05T18:55:00.977Z,5.55
2018-10-05T18:57:31.764Z,6.58
2018-10-05T19:00:03.688Z,10.03
2018-10-05T19:02:35.877Z,4.83
2018-10-05T19:05:06.036Z,7.25
2018-10-05T19:07:35.476Z,12.47
2018-10-05T19:10:12.814Z,6.25
2018-10-05T19:12:45.723Z,6.62
2018-10-05T19:15:14.015Z,5.78
2018-10-05T19:17:42.328Z,10.63
2018-10-05T19:20:10.597Z,6.17
2018-10-05T19:22:42.885Z,10.58
2018-10-05T19:25:11.606Z,9.13
2018-10-05T19:27:39.939Z,6.50
2018-10-05T19:30:10.410Z,7.58
2018-10-05T19:32:39.177Z,8.05
2018-10-05T19:35:09.887Z,7.80
2018-10-05T19:37:40.310Z,7.67
2018-10-05T19:40:10.343Z,15.38
2018-10-05T19:42:39.081Z,7.67
2018-10-05T19:45:11.596Z,6.90
2018-10-05T19:47:43.150Z,8.30
2018-10-05T19:50:11.628Z,8.05
2018-10-05T19:52:39.895Z,7.92
2018-10-05T19:55:08.256Z,11.18
2018-10-05T19:57:36.563Z,7.75
2018-10-05T20:00:04.944Z,9.75
2018-10-05T20:02:33.302Z,9.88
2018-10-05T20:05:01.687Z,8.30
2018-10-05T20:07:31.042Z,10.78
2018-10-05T20:10:01.548Z,8.93
2018-10-05T20:12:31.686Z,9.33
2018-10-05T20:15:02.936Z,10.20
2018-10-05T20:17:40.501Z,10.30
2018-10-05T20:20:33.765Z,10.58
2018-10-05T20:23:48.405Z,9.28
2018-10-05T20:26:17.205Z,9.60
2018-10-05T20:28:46.202Z,9.73
2018-10-05T20:31:17.641Z,8.58
2018-10-05T20:33:48.817Z,13.98
2018-10-05T20:36:18.649Z,8.88
2018-10-05T20:38:56.951Z,9.60
2018-10-05T20:41:26.343Z,11.03
2018-10-05T20:43:55.860Z,9.70
2018-10-05T20:46:32.110Z,14.00
2018-10-05T20:49:01.289Z,10.55
2018-10-05T20:51:30.079Z,9.20
2018-10-05T20:53:58.970Z,9.00
2018-10-05T20:56:28.376Z,9.30
2018-10-05T20:58:56.988Z,9.90
2018-10-05T21:01:25.273Z,10.75
2018-10-05T21:03:54.406Z,10.03
2018-10-05T21:06:24.118Z,9.80
2018-10-05T21:11:56.444Z,10.98
2018-10-05T21:14:33.682Z,7.95
2018-10-05T21:17:02.922Z,9.00
2018-10-05T21:19:36.790Z,8.13
2018-10-05T21:22:07.831Z,10.25
2018-10-05T21:24:47.593Z,9.03
2018-10-05T21:27:33.744Z,10.10
2018-10-05T21:30:14.303Z,8.95
2018-10-05T21:49:50.859Z,8.45
2018-10-05T21:52:19.843Z,9.95
2018-10-05T21:54:49.481Z,9.18
2018-10-05T21:57:20.331Z,12.20
2018-10-05T21:59:51.341Z,9.73
2018-10-05T22:02:22.310Z,9.23
2018-10-05T22:04:52.560Z,8.20
2018-10-05T22:07:25.162Z,7.87
2018-10-05T22:10:01.275Z,11.40
2018-10-05T22:12:31.380Z,13.83
2018-10-05T22:15:00.048Z,9.95
2018-10-05T22:17:29.202Z,8.95
2018-10-05T22:19:57.643Z,8.43
2018-10-05T22:22:26.348Z,8.00
2018-10-05T22:24:55.405Z,12.03
2018-10-05T22:30:27.103Z,7.00
2018-10-05T22:32:56.178Z,11.00
2018-10-05T22:35:24.499Z,8.55
2018-10-05T22:37:52.946Z,12.40
2018-10-05T22:40:21.269Z,8.70
2018-10-05T22:42:49.579Z,14.23
2018-10-05T22:45:17.860Z,10.48
2018-10-05T22:47:46.250Z,10.25
2018-10-05T22:50:14.614Z,9.33
2018-10-05T22:52:42.890Z,10.65
2018-10-05T22:55:11.155Z,9.98
2018-10-05T22:57:39.442Z,10.40
2018-10-05T23:00:08.948Z,12.37
2018-10-05T23:02:37.294Z,10.85
2018-10-05T23:05:05.670Z,13.10
2018-10-05T23:07:33.847Z,10.25
2018-10-05T23:10:02.128Z,10.25
2018-10-05T23:12:30.527Z,10.63
2018-10-05T23:14:58.834Z,11.63
2018-10-05T23:17:27.100Z,10.90
2018-10-05T23:19:55.422Z,11.45
2018-10-05T23:22:23.678Z,10.60
2018-10-05T23:24:51.997Z,10.50
2018-10-05T23:27:20.262Z,10.90
2018-10-05T23:29:48.591Z,12.60
2018-10-05T23:32:16.901Z,16.77
2018-10-05T23:34:45.202Z,15.83
2018-10-05T23:37:13.592Z,10.28
2018-10-05T23:39:41.865Z,15.53
2018-10-05T23:42:10.222Z,12.82
2018-10-05T23:44:38.645Z,13.62
2018-10-05T23:47:06.970Z,12.85
2018-10-05T23:49:35.373Z,12.90
2018-10-05T23:52:10.806Z,13.70
2018-10-05T23:54:39.536Z,15.90
2018-10-05T23:57:07.819Z,17.67
2018-10-05T23:59:36.049Z,14.03
